sensor_id;sensor_type;location;lat;lon;timestamp;pressure;altitude;pressure_sealevel;temperature;humidity
10881;BME280;5493;48.884;8.338;2022-07-19T00:00:17;100434.63;;;23.86;76.32
10881;BME280;5493;48.884;8.338;2022-07-19T00:02:44;100433.47;;;23.41;83.55
10881;BME280;5493;48.884;8.338;2022-07-19T00:05:13;100437.09;;;23.55;79.83
10881;BME280;5493;48.884;8.338;2022-07-19T00:07:40;100430.44;;;23.88;75.26
10881;BME280;5493;48.884;8.338;2022-07-19T00:10:09;100439.59;;;23.84;75.38
10881;BME280;5493;48.884;8.338;2022-07-19T00:12:37;100437.72;;;23.33;83.30
10881;BME280;5493;48.884;8.338;2022-07-19T00:15:06;100430.50;;;23.37;83.03
10881;BME280;5493;48.884;8.338;2022-07-19T00:17:33;100434.13;;;23.51;80.90
10881;BME280;5493;48.884;8.338;2022-07-19T00:20:00;100433.66;;;23.12;90.23
10881;BME280;5493;48.884;8.338;2022-07-19T00:22:28;100438.94;;;23.09;86.88
10881;BME280;5493;48.884;8.338;2022-07-19T00:24:54;100433.75;;;23.07;84.50
10881;BME280;5493;48.884;8.338;2022-07-19T00:27:21;100438.06;;;23.13;81.58
10881;BME280;5493;48.884;8.338;2022-07-19T00:29:47;100433.53;;;23.03;84.41
10881;BME280;5493;48.884;8.338;2022-07-19T00:32:14;100433.91;;;22.97;84.52
10881;BME280;5493;48.884;8.338;2022-07-19T00:34:40;100432.47;;;23.18;81.97
10881;BME280;5493;48.884;8.338;2022-07-19T00:37:07;100431.16;;;22.97;87.65
10881;BME280;5493;48.884;8.338;2022-07-19T00:39:35;100431.44;;;22.95;88.63
10881;BME280;5493;48.884;8.338;2022-07-19T00:42:02;100431.59;;;22.85;89.42
10881;BME280;5493;48.884;8.338;2022-07-19T00:44:29;100421.88;;;22.93;87.00
10881;BME280;5493;48.884;8.338;2022-07-19T00:46:55;100432.34;;;22.48;93.33
10881;BME280;5493;48.884;8.338;2022-07-19T00:49:22;100423.78;;;22.74;90.45
10881;BME280;5493;48.884;8.338;2022-07-19T00:51:50;100425.22;;;22.47;94.05
10881;BME280;5493;48.884;8.338;2022-07-19T00:54:19;100425.63;;;22.60;91.21
10881;BME280;5493;48.884;8.338;2022-07-19T00:56:49;100426.72;;;22.58;91.41
10881;BME280;5493;48.884;8.338;2022-07-19T00:59:17;100420.16;;;22.54;89.97
10881;BME280;5493;48.884;8.338;2022-07-19T01:01:44;100428.72;;;22.53;89.72
10881;BME280;5493;48.884;8.338;2022-07-19T01:04:11;100426.91;;;22.67;88.27
10881;BME280;5493;48.884;8.338;2022-07-19T01:06:38;100435.25;;;22.81;84.79
10881;BME280;5493;48.884;8.338;2022-07-19T01:09:04;100435.63;;;22.74;88.72
10881;BME280;5493;48.884;8.338;2022-07-19T01:11:31;100437.03;;;22.72;88.22
10881;BME280;5493;48.884;8.338;2022-07-19T01:13:59;100436.66;;;22.78;85.98
10881;BME280;5493;48.884;8.338;2022-07-19T01:16:25;100426.25;;;22.75;89.38
10881;BME280;5493;48.884;8.338;2022-07-19T01:18:52;100443.03;;;22.31;96.41
10881;BME280;5493;48.884;8.338;2022-07-19T01:21:20;100434.00;;;22.49;93.65
10881;BME280;5493;48.884;8.338;2022-07-19T01:23:47;100434.75;;;22.55;90.93
10881;BME280;5493;48.884;8.338;2022-07-19T01:26:14;100435.94;;;22.49;94.55
10881;BME280;5493;48.884;8.338;2022-07-19T01:28:41;100438.13;;;22.47;94.61
10881;BME280;5493;48.884;8.338;2022-07-19T01:31:08;100440.56;;;22.30;92.62
10881;BME280;5493;48.884;8.338;2022-07-19T01:33:38;100433.00;;;22.40;93.45
10881;BME280;5493;48.884;8.338;2022-07-19T01:36:05;100433.03;;;22.17;94.06
10881;BME280;5493;48.884;8.338;2022-07-19T01:38:33;100442.38;;;22.16;94.48
10881;BME280;5493;48.884;8.338;2022-07-19T01:41:00;100435.91;;;22.06;96.30
10881;BME280;5493;48.884;8.338;2022-07-19T01:43:26;100434.41;;;21.90;98.75
10881;BME280;5493;48.884;8.338;2022-07-19T01:45:53;100423.63;;;21.99;97.19
10881;BME280;5493;48.884;8.338;2022-07-19T01:48:19;100430.56;;;22.15;93.71
10881;BME280;5493;48.884;8.338;2022-07-19T01:50:46;100433.16;;;22.06;96.71
10881;BME280;5493;48.884;8.338;2022-07-19T01:53:12;100440.94;;;21.66;100.00
10881;BME280;5493;48.884;8.338;2022-07-19T01:55:40;100427.75;;;21.68;100.00
10881;BME280;5493;48.884;8.338;2022-07-19T01:58:07;100431.41;;;21.58;100.00
10881;BME280;5493;48.884;8.338;2022-07-19T02:00:33;100425.59;;;21.65;100.00
10881;BME280;5493;48.884;8.338;2022-07-19T02:03:00;100419.97;;;21.51;100.00
10881;BME280;5493;48.884;8.338;2022-07-19T02:05:26;100428.34;;;21.31;100.00
10881;BME280;5493;48.884;8.338;2022-07-19T02:07:53;100418.84;;;21.52;100.00
10881;BME280;5493;48.884;8.338;2022-07-19T02:10:19;100416.28;;;21.32;100.00
10881;BME280;5493;48.884;8.338;2022-07-19T02:12:47;100403.38;;;21.61;98.30
10881;BME280;5493;48.884;8.338;2022-07-19T02:15:13;100408.09;;;21.27;100.00
10881;BME280;5493;48.884;8.338;2022-07-19T02:17:40;100403.19;;;21.24;100.00
10881;BME280;5493;48.884;8.338;2022-07-19T02:20:07;100406.09;;;21.37;100.00
10881;BME280;5493;48.884;8.338;2022-07-19T02:22:34;100400.91;;;21.31;100.00
10881;BME280;5493;48.884;8.338;2022-07-19T02:25:00;100399.91;;;21.22;100.00
10881;BME280;5493;48.884;8.338;2022-07-19T02:27:27;100398.50;;;21.24;100.00
10881;BME280;5493;48.884;8.338;2022-07-19T02:29:55;100379.31;;;21.24;100.00
10881;BME280;5493;48.884;8.338;2022-07-19T02:32:22;100386.53;;;21.10;100.00
10881;BME280;5493;48.884;8.338;2022-07-19T02:34:48;100380.59;;;21.37;100.00
10881;BME280;5493;48.884;8.338;2022-07-19T02:37:15;100386.53;;;21.10;100.00
10881;BME280;5493;48.884;8.338;2022-07-19T02:39:41;100384.09;;;21.08;100.00
10881;BME280;5493;48.884;8.338;2022-07-19T02:42:08;100374.75;;;21.09;100.00
10881;BME280;5493;48.884;8.338;2022-07-19T02:44:34;100381.78;;;20.87;100.00
10881;BME280;5493;48.884;8.338;2022-07-19T02:47:02;100380.41;;;20.89;100.00
10881;BME280;5493;48.884;8.338;2022-07-19T02:49:29;100376.91;;;21.18;100.00
10881;BME280;5493;48.884;8.338;2022-07-19T02:51:55;100381.91;;;21.05;100.00
10881;BME280;5493;48.884;8.338;2022-07-19T02:54:21;100378.06;;;21.06;100.00
10881;BME280;5493;48.884;8.338;2022-07-19T02:56:48;100383.63;;;20.96;100.00
10881;BME280;5493;48.884;8.338;2022-07-19T02:59:15;100385.56;;;20.96;100.00
10881;BME280;5493;48.884;8.338;2022-07-19T03:01:41;100379.66;;;20.79;100.00
10881;BME280;5493;48.884;8.338;2022-07-19T03:04:09;100386.78;;;20.21;100.00
10881;BME280;5493;48.884;8.338;2022-07-19T03:06:35;100375.69;;;20.56;100.00
10881;BME280;5493;48.884;8.338;2022-07-19T03:09:02;100383.97;;;20.46;100.00
10881;BME280;5493;48.884;8.338;2022-07-19T03:11:29;100374.91;;;20.45;100.00
10881;BME280;5493;48.884;8.338;2022-07-19T03:13:55;100377.44;;;20.27;100.00
10881;BME280;5493;48.884;8.338;2022-07-19T03:16:22;100380.72;;;20.39;100.00
10881;BME280;5493;48.884;8.338;2022-07-19T03:18:48;100378.47;;;20.46;100.00
10881;BME280;5493;48.884;8.338;2022-07-19T03:21:16;100380.66;;;20.44;100.00
10881;BME280;5493;48.884;8.338;2022-07-19T03:23:43;100390.34;;;20.31;100.00
10881;BME280;5493;48.884;8.338;2022-07-19T03:26:09;100377.75;;;20.25;100.00
10881;BME280;5493;48.884;8.338;2022-07-19T03:28:36;100377.22;;;20.28;100.00
10881;BME280;5493;48.884;8.338;2022-07-19T03:31:02;100385.69;;;20.32;100.00
10881;BME280;5493;48.884;8.338;2022-07-19T03:33:29;100377.47;;;20.32;100.00
10881;BME280;5493;48.884;8.338;2022-07-19T03:35:56;100380.97;;;20.42;100.00
10881;BME280;5493;48.884;8.338;2022-07-19T03:38:23;100384.22;;;20.49;100.00
10881;BME280;5493;48.884;8.338;2022-07-19T03:40:50;100381.22;;;20.41;100.00
10881;BME280;5493;48.884;8.338;2022-07-19T03:43:17;100384.06;;;20.15;100.00
10881;BME280;5493;48.884;8.338;2022-07-19T03:45:44;100393.78;;;20.52;100.00
10881;BME280;5493;48.884;8.338;2022-07-19T03:48:11;100396.25;;;20.53;100.00
10881;BME280;5493;48.884;8.338;2022-07-19T03:50:37;100391.13;;;20.37;100.00
10881;BME280;5493;48.884;8.338;2022-07-19T03:53:04;100388.69;;;20.30;100.00
10881;BME280;5493;48.884;8.338;2022-07-19T03:55:32;100396.09;;;20.25;100.00
10881;BME280;5493;48.884;8.338;2022-07-19T03:57:59;100394.50;;;20.08;100.00
10881;BME280;5493;48.884;8.338;2022-07-19T04:00:25;100396.47;;;19.93;100.00
10881;BME280;5493;48.884;8.338;2022-07-19T04:02:52;100405.22;;;20.00;100.00
10881;BME280;5493;48.884;8.338;2022-07-19T04:05:19;100402.97;;;20.17;100.00
10881;BME280;5493;48.884;8.338;2022-07-19T04:07:45;100404.88;;;20.17;100.00
10881;BME280;5493;48.884;8.338;2022-07-19T04:10:12;100402.41;;;20.20;100.00
10881;BME280;5493;48.884;8.338;2022-07-19T04:12:40;100411.22;;;20.07;100.00
10881;BME280;5493;48.884;8.338;2022-07-19T04:15:07;100411.22;;;20.02;100.00
10881;BME280;5493;48.884;8.338;2022-07-19T04:17:35;100419.47;;;19.87;100.00
10881;BME280;5493;48.884;8.338;2022-07-19T04:20:02;100422.19;;;19.97;100.00
10881;BME280;5493;48.884;8.338;2022-07-19T04:22:29;100417.84;;;19.81;100.00
10881;BME280;5493;48.884;8.338;2022-07-19T04:24:55;100415.34;;;19.94;100.00
10881;BME280;5493;48.884;8.338;2022-07-19T04:27:22;100410.59;;;20.20;100.00
10881;BME280;5493;48.884;8.338;2022-07-19T04:29:49;100414.06;;;20.51;100.00
10881;BME280;5493;48.884;8.338;2022-07-19T04:32:16;100412.81;;;20.77;100.00
10881;BME280;5493;48.884;8.338;2022-07-19T04:34:42;100416.63;;;21.20;100.00
10881;BME280;5493;48.884;8.338;2022-07-19T04:37:09;100419.84;;;21.61;100.00
10881;BME280;5493;48.884;8.338;2022-07-19T04:39:35;100418.31;;;21.79;100.00
10881;BME280;5493;48.884;8.338;2022-07-19T04:42:02;100420.03;;;22.22;100.00
10881;BME280;5493;48.884;8.338;2022-07-19T04:44:29;100414.22;;;22.47;100.00
10881;BME280;5493;48.884;8.338;2022-07-19T04:46:57;100422.91;;;22.12;100.00
10881;BME280;5493;48.884;8.338;2022-07-19T04:49:24;100420.34;;;22.21;100.00
10881;BME280;5493;48.884;8.338;2022-07-19T04:51:50;100415.03;;;22.05;100.00
10881;BME280;5493;48.884;8.338;2022-07-19T04:54:17;100414.88;;;22.82;100.00
10881;BME280;5493;48.884;8.338;2022-07-19T04:56:43;100405.69;;;23.24;100.00
10881;BME280;5493;48.884;8.338;2022-07-19T04:59:10;100403.97;;;23.28;100.00
10881;BME280;5493;48.884;8.338;2022-07-19T05:01:36;100398.91;;;23.35;100.00
10881;BME280;5493;48.884;8.338;2022-07-19T05:04:04;100395.06;;;24.09;100.00
10881;BME280;5493;48.884;8.338;2022-07-19T05:06:31;100398.91;;;24.63;100.00
10881;BME280;5493;48.884;8.338;2022-07-19T05:08:57;100406.56;;;24.66;100.00
10881;BME280;5493;48.884;8.338;2022-07-19T05:11:24;100401.69;;;24.98;100.00
10881;BME280;5493;48.884;8.338;2022-07-19T05:13:50;100401.25;;;25.27;100.00
10881;BME280;5493;48.884;8.338;2022-07-19T05:16:17;100410.84;;;25.83;98.12
10881;BME280;5493;48.884;8.338;2022-07-19T05:18:43;100416.53;;;26.17;94.64
10881;BME280;5493;48.884;8.338;2022-07-19T05:21:11;100419.91;;;26.06;96.20
10881;BME280;5493;48.884;8.338;2022-07-19T05:23:40;100416.47;;;24.67;100.00
10881;BME280;5493;48.884;8.338;2022-07-19T05:26:07;100420.41;;;25.77;96.50
10881;BME280;5493;48.884;8.338;2022-07-19T05:28:33;100413.19;;;26.29;91.79
10881;BME280;5493;48.884;8.338;2022-07-19T05:31:00;100413.72;;;26.09;93.21
10881;BME280;5493;48.884;8.338;2022-07-19T05:33:26;100421.38;;;26.03;95.42
10881;BME280;5493;48.884;8.338;2022-07-19T05:35:53;100420.50;;;25.94;95.63
10881;BME280;5493;48.884;8.338;2022-07-19T05:38:22;100414.13;;;27.15;85.41
10881;BME280;5493;48.884;8.338;2022-07-19T05:40:49;100407.56;;;27.63;80.24
10881;BME280;5493;48.884;8.338;2022-07-19T05:43:15;100413.63;;;28.03;73.91
10881;BME280;5493;48.884;8.338;2022-07-19T05:45:42;100415.00;;;27.88;74.67
10881;BME280;5493;48.884;8.338;2022-07-19T05:48:09;100409.81;;;28.24;71.37
10881;BME280;5493;48.884;8.338;2022-07-19T05:50:36;100410.66;;;28.75;69.77
10881;BME280;5493;48.884;8.338;2022-07-19T05:53:02;100413.47;;;28.87;63.42
10881;BME280;5493;48.884;8.338;2022-07-19T05:55:30;100411.09;;;29.39;57.10
10881;BME280;5493;48.884;8.338;2022-07-19T05:57:56;100419.84;;;29.62;56.69
10881;BME280;5493;48.884;8.338;2022-07-19T06:00:23;100416.41;;;29.77;55.43
10881;BME280;5493;48.884;8.338;2022-07-19T06:02:49;100408.97;;;29.81;54.31
10881;BME280;5493;48.884;8.338;2022-07-19T06:05:16;100415.31;;;30.02;53.23
10881;BME280;5493;48.884;8.338;2022-07-19T06:07:42;100418.09;;;30.39;52.48
10881;BME280;5493;48.884;8.338;2022-07-19T06:10:09;100425.03;;;30.69;51.15
10881;BME280;5493;48.884;8.338;2022-07-19T06:12:37;100430.59;;;30.81;54.90
10881;BME280;5493;48.884;8.338;2022-07-19T06:15:04;100428.13;;;30.92;53.70
10881;BME280;5493;48.884;8.338;2022-07-19T06:17:31;100430.03;;;31.15;55.36
10881;BME280;5493;48.884;8.338;2022-07-19T06:19:57;100432.22;;;31.22;53.62
10881;BME280;5493;48.884;8.338;2022-07-19T06:22:24;100429.78;;;31.33;53.54
10881;BME280;5493;48.884;8.338;2022-07-19T06:24:50;100433.94;;;31.27;51.78
10881;BME280;5493;48.884;8.338;2022-07-19T06:27:17;100445.34;;;30.57;56.70
10881;BME280;5493;48.884;8.338;2022-07-19T06:29:44;100427.84;;;31.21;55.77
10881;BME280;5493;48.884;8.338;2022-07-19T06:32:11;100424.28;;;31.64;51.99
10881;BME280;5493;48.884;8.338;2022-07-19T06:34:37;100422.97;;;32.36;48.96
10881;BME280;5493;48.884;8.338;2022-07-19T06:37:04;100430.22;;;32.56;48.02
10881;BME280;5493;48.884;8.338;2022-07-19T06:39:31;100421.44;;;31.92;50.71
10881;BME280;5493;48.884;8.338;2022-07-19T06:41:57;100420.28;;;31.21;52.57
10881;BME280;5493;48.884;8.338;2022-07-19T06:44:24;100430.50;;;31.45;52.53
10881;BME280;5493;48.884;8.338;2022-07-19T06:46:51;100425.09;;;31.09;50.89
10881;BME280;5493;48.884;8.338;2022-07-19T06:49:18;100421.47;;;30.56;55.62
10881;BME280;5493;48.884;8.338;2022-07-19T06:51:44;100422.56;;;32.69;49.18
10881;BME280;5493;48.884;8.338;2022-07-19T06:54:11;100423.06;;;31.49;52.02
10881;BME280;5493;48.884;8.338;2022-07-19T06:56:37;100420.19;;;33.06;46.77
10881;BME280;5493;48.884;8.338;2022-07-19T06:59:04;100425.94;;;32.59;45.64
10881;BME280;5493;48.884;8.338;2022-07-19T07:01:30;100408.81;;;32.45;44.48
10881;BME280;5493;48.884;8.338;2022-07-19T07:03:58;100420.34;;;32.43;42.41
10881;BME280;5493;48.884;8.338;2022-07-19T07:06:24;100418.56;;;32.35;43.23
10881;BME280;5493;48.884;8.338;2022-07-19T07:08:51;100424.50;;;31.43;46.48
10881;BME280;5493;48.884;8.338;2022-07-19T07:11:17;100422.56;;;32.69;43.97
10881;BME280;5493;48.884;8.338;2022-07-19T07:13:44;100425.59;;;33.76;43.06
10881;BME280;5493;48.884;8.338;2022-07-19T07:16:10;100431.09;;;32.76;43.32
10881;BME280;5493;48.884;8.338;2022-07-19T07:18:37;100422.78;;;34.44;40.26
10881;BME280;5493;48.884;8.338;2022-07-19T07:21:05;100430.47;;;33.59;42.01
10881;BME280;5493;48.884;8.338;2022-07-19T07:23:31;100421.44;;;33.89;43.00
10881;BME280;5493;48.884;8.338;2022-07-19T07:25:58;100419.72;;;33.04;43.59
10881;BME280;5493;48.884;8.338;2022-07-19T07:28:24;100414.66;;;33.48;44.28
10881;BME280;5493;48.884;8.338;2022-07-19T07:30:51;100412.63;;;33.64;42.28
10881;BME280;5493;48.884;8.338;2022-07-19T07:33:17;100420.78;;;33.53;42.93
10881;BME280;5493;48.884;8.338;2022-07-19T07:35:44;100412.31;;;33.92;42.04
10881;BME280;5493;48.884;8.338;2022-07-19T07:38:11;100410.81;;;33.75;41.54
10881;BME280;5493;48.884;8.338;2022-07-19T07:40:38;100413.53;;;34.96;39.29
10881;BME280;5493;48.884;8.338;2022-07-19T07:43:04;100406.44;;;34.23;39.08
10881;BME280;5493;48.884;8.338;2022-07-19T07:45:32;100399.69;;;33.59;40.55
10881;BME280;5493;48.884;8.338;2022-07-19T07:47:58;100400.47;;;34.77;39.14
10881;BME280;5493;48.884;8.338;2022-07-19T07:50:26;100395.50;;;34.41;38.59
10881;BME280;5493;48.884;8.338;2022-07-19T07:52:53;100391.22;;;34.21;37.46
10881;BME280;5493;48.884;8.338;2022-07-19T07:55:21;100399.47;;;34.92;37.16
10881;BME280;5493;48.884;8.338;2022-07-19T07:57:47;100394.97;;;34.84;37.41
10881;BME280;5493;48.884;8.338;2022-07-19T08:00:14;100386.34;;;35.00;37.32
10881;BME280;5493;48.884;8.338;2022-07-19T08:02:43;100383.94;;;34.98;36.69
10881;BME280;5493;48.884;8.338;2022-07-19T08:05:10;100384.06;;;36.27;37.09
10881;BME280;5493;48.884;8.338;2022-07-19T08:07:37;100380.47;;;35.82;35.43
10881;BME280;5493;48.884;8.338;2022-07-19T08:10:05;100374.22;;;35.99;35.84
10881;BME280;5493;48.884;8.338;2022-07-19T08:12:33;100376.50;;;35.87;37.24
10881;BME280;5493;48.884;8.338;2022-07-19T08:15:00;100373.13;;;36.69;35.57
10881;BME280;5493;48.884;8.338;2022-07-19T08:17:26;100371.06;;;36.59;35.74
10881;BME280;5493;48.884;8.338;2022-07-19T08:19:53;100368.63;;;36.58;34.13
10881;BME280;5493;48.884;8.338;2022-07-19T08:22:19;100356.13;;;37.45;33.20
10881;BME280;5493;48.884;8.338;2022-07-19T08:24:46;100360.50;;;38.73;32.33
10881;BME280;5493;48.884;8.338;2022-07-19T08:27:12;100355.38;;;39.41;30.11
10881;BME280;5493;48.884;8.338;2022-07-19T08:29:40;100353.19;;;39.70;29.69
10881;BME280;5493;48.884;8.338;2022-07-19T08:32:07;100358.59;;;38.49;32.55
10881;BME280;5493;48.884;8.338;2022-07-19T08:34:33;100353.41;;;38.05;31.14
10881;BME280;5493;48.884;8.338;2022-07-19T08:37:00;100339.47;;;38.99;31.46
10881;BME280;5493;48.884;8.338;2022-07-19T08:39:26;100343.63;;;38.63;31.40
10881;BME280;5493;48.884;8.338;2022-07-19T08:41:53;100335.94;;;40.02;29.40
10881;BME280;5493;48.884;8.338;2022-07-19T08:44:19;100339.00;;;39.77;28.97
10881;BME280;5493;48.884;8.338;2022-07-19T08:46:49;100344.78;;;38.86;29.47
10881;BME280;5493;48.884;8.338;2022-07-19T08:49:15;100334.25;;;40.49;27.99
10881;BME280;5493;48.884;8.338;2022-07-19T08:51:42;100348.63;;;41.29;25.75
10881;BME280;5493;48.884;8.338;2022-07-19T08:54:09;100344.28;;;41.21;25.82
10881;BME280;5493;48.884;8.338;2022-07-19T08:56:35;100348.06;;;41.41;25.88
10881;BME280;5493;48.884;8.338;2022-07-19T08:59:22;100338.34;;;41.42;23.98
10881;BME280;5493;48.884;8.338;2022-07-19T09:01:50;100346.47;;;40.42;25.70
10881;BME280;5493;48.884;8.338;2022-07-19T09:04:18;100336.16;;;40.93;25.17
10881;BME280;5493;48.884;8.338;2022-07-19T09:06:49;100336.91;;;39.84;21.74
10881;BME280;5493;48.884;8.338;2022-07-19T09:09:17;100347.34;;;40.36;22.75
10881;BME280;5493;48.884;8.338;2022-07-19T09:11:45;100329.72;;;39.76;20.24
10881;BME280;5493;48.884;8.338;2022-07-19T09:14:17;100336.06;;;40.32;20.48
10881;BME280;5493;48.884;8.338;2022-07-19T09:16:57;100334.84;;;41.04;20.75
10881;BME280;5493;48.884;8.338;2022-07-19T09:19:28;100332.13;;;40.60;20.70
10881;BME280;5493;48.884;8.338;2022-07-19T09:21:57;100334.44;;;40.72;18.69
10881;BME280;5493;48.884;8.338;2022-07-19T09:24:25;100336.69;;;40.09;18.19
10881;BME280;5493;48.884;8.338;2022-07-19T09:26:57;100335.09;;;40.83;17.87
10881;BME280;5493;48.884;8.338;2022-07-19T09:29:24;100327.53;;;41.34;18.23
10881;BME280;5493;48.884;8.338;2022-07-19T09:32:08;100327.63;;;41.00;17.41
10881;BME280;5493;48.884;8.338;2022-07-19T09:34:38;100324.75;;;41.30;18.03
10881;BME280;5493;48.884;8.338;2022-07-19T09:37:13;100331.69;;;40.65;18.30
10881;BME280;5493;48.884;8.338;2022-07-19T09:39:40;100321.53;;;41.28;17.87
10881;BME280;5493;48.884;8.338;2022-07-19T09:42:10;100326.66;;;41.10;17.52
10881;BME280;5493;48.884;8.338;2022-07-19T09:44:37;100326.88;;;41.53;17.41
10881;BME280;5493;48.884;8.338;2022-07-19T09:47:03;100326.59;;;40.83;17.86
10881;BME280;5493;48.884;8.338;2022-07-19T09:49:31;100323.53;;;40.70;17.79
10881;BME280;5493;48.884;8.338;2022-07-19T09:51:58;100318.75;;;41.78;17.34
10881;BME280;5493;48.884;8.338;2022-07-19T09:54:27;100319.81;;;41.07;18.19
10881;BME280;5493;48.884;8.338;2022-07-19T09:56:55;100315.03;;;41.58;18.74
10881;BME280;5493;48.884;8.338;2022-07-19T09:59:24;100303.09;;;42.16;17.27
10881;BME280;5493;48.884;8.338;2022-07-19T10:01:53;100305.44;;;41.52;18.07
10881;BME280;5493;48.884;8.338;2022-07-19T10:04:21;100305.31;;;41.05;17.36
10881;BME280;5493;48.884;8.338;2022-07-19T10:06:50;100307.75;;;40.73;18.58
10881;BME280;5493;48.884;8.338;2022-07-19T10:09:19;100302.81;;;41.38;18.32
10881;BME280;5493;48.884;8.338;2022-07-19T10:11:46;100292.72;;;42.49;16.81
10881;BME280;5493;48.884;8.338;2022-07-19T10:14:13;100293.81;;;40.59;17.70
10881;BME280;5493;48.884;8.338;2022-07-19T10:16:55;100286.63;;;40.47;18.06
10881;BME280;5493;48.884;8.338;2022-07-19T10:19:30;100293.84;;;40.55;17.52
10881;BME280;5493;48.884;8.338;2022-07-19T10:22:01;100288.97;;;40.56;18.11
10881;BME280;5493;48.884;8.338;2022-07-19T10:24:44;100280.25;;;40.02;18.19
10881;BME280;5493;48.884;8.338;2022-07-19T10:27:12;100278.53;;;40.15;18.55
10881;BME280;5493;48.884;8.338;2022-07-19T10:29:39;100285.81;;;40.13;17.87
10881;BME280;5493;48.884;8.338;2022-07-19T10:32:08;100276.03;;;40.58;17.41
10881;BME280;5493;48.884;8.338;2022-07-19T10:34:35;100264.28;;;40.60;17.66
10881;BME280;5493;48.884;8.338;2022-07-19T10:37:03;100261.25;;;40.06;18.31
10881;BME280;5493;48.884;8.338;2022-07-19T10:39:31;100256.19;;;40.28;18.81
10881;BME280;5493;48.884;8.338;2022-07-19T10:42:10;100250.44;;;40.96;17.65
10881;BME280;5493;48.884;8.338;2022-07-19T10:48:02;100252.03;;;41.00;17.33
10881;BME280;5493;48.884;8.338;2022-07-19T10:50:53;100241.38;;;40.17;17.86
10881;BME280;5493;48.884;8.338;2022-07-19T10:53:54;100248.88;;;40.64;18.84
10881;BME280;5493;48.884;8.338;2022-07-19T10:56:23;100240.06;;;40.59;18.32
10881;BME280;5493;48.884;8.338;2022-07-19T10:58:51;100225.00;;;40.35;18.45
10881;BME280;5493;48.884;8.338;2022-07-19T11:01:20;100233.88;;;40.00;18.40
10881;BME280;5493;48.884;8.338;2022-07-19T11:03:48;100226.06;;;40.45;17.60
10881;BME280;5493;48.884;8.338;2022-07-19T11:06:20;100233.69;;;39.76;17.76
10881;BME280;5493;48.884;8.338;2022-07-19T11:08:47;100211.97;;;40.11;18.13
10881;BME280;5493;48.884;8.338;2022-07-19T11:11:17;100209.16;;;39.70;18.71
10881;BME280;5493;48.884;8.338;2022-07-19T11:13:45;100217.97;;;40.47;17.83
10881;BME280;5493;48.884;8.338;2022-07-19T11:16:12;100217.25;;;40.73;17.56
10881;BME280;5493;48.884;8.338;2022-07-19T11:18:39;100211.22;;;41.94;16.78
10881;BME280;5493;48.884;8.338;2022-07-19T11:21:06;100200.94;;;41.57;17.19
10881;BME280;5493;48.884;8.338;2022-07-19T11:23:35;100199.88;;;41.01;16.97
10881;BME280;5493;48.884;8.338;2022-07-19T11:26:08;100191.97;;;41.62;16.41
10881;BME280;5493;48.884;8.338;2022-07-19T11:28:37;100184.44;;;40.49;17.38
10881;BME280;5493;48.884;8.338;2022-07-19T11:31:12;100176.75;;;40.49;17.13
10881;BME280;5493;48.884;8.338;2022-07-19T11:33:38;100176.94;;;40.92;17.61
10881;BME280;5493;48.884;8.338;2022-07-19T11:36:05;100177.25;;;40.44;17.79
10881;BME280;5493;48.884;8.338;2022-07-19T11:38:40;100174.47;;;40.41;17.71
10881;BME280;5493;48.884;8.338;2022-07-19T11:41:11;100168.84;;;40.03;18.09
10881;BME280;5493;48.884;8.338;2022-07-19T11:43:39;100167.81;;;40.24;17.11
10881;BME280;5493;48.884;8.338;2022-07-19T11:46:05;100174.84;;;40.73;17.60
10881;BME280;5493;48.884;8.338;2022-07-19T11:48:32;100185.84;;;41.17;17.13
10881;BME280;5493;48.884;8.338;2022-07-19T11:51:03;100173.69;;;41.44;17.00
10881;BME280;5493;48.884;8.338;2022-07-19T11:53:31;100175.94;;;40.79;17.59
10881;BME280;5493;48.884;8.338;2022-07-19T11:55:58;100173.84;;;39.92;17.85
10881;BME280;5493;48.884;8.338;2022-07-19T11:58:25;100160.94;;;41.32;17.25
10881;BME280;5493;48.884;8.338;2022-07-19T12:01:00;100162.41;;;40.37;17.81
10881;BME280;5493;48.884;8.338;2022-07-19T12:03:26;100168.94;;;40.60;18.30
10881;BME280;5493;48.884;8.338;2022-07-19T12:05:55;100158.59;;;41.04;17.78
10881;BME280;5493;48.884;8.338;2022-07-19T12:08:31;100150.47;;;39.88;18.65
10881;BME280;5493;48.884;8.338;2022-07-19T12:10:58;100150.38;;;40.86;18.15
10881;BME280;5493;48.884;8.338;2022-07-19T12:13:29;100140.50;;;40.44;18.31
10881;BME280;5493;48.884;8.338;2022-07-19T12:15:59;100139.34;;;40.68;18.18
10881;BME280;5493;48.884;8.338;2022-07-19T12:18:43;100128.78;;;39.81;17.92
10881;BME280;5493;48.884;8.338;2022-07-19T12:21:22;100126.97;;;39.61;18.71
10881;BME280;5493;48.884;8.338;2022-07-19T12:24:15;100127.41;;;40.54;18.57
10881;BME280;5493;48.884;8.338;2022-07-19T12:26:43;100117.50;;;40.12;18.46
10881;BME280;5493;48.884;8.338;2022-07-19T12:29:18;100124.50;;;40.00;18.93
10881;BME280;5493;48.884;8.338;2022-07-19T12:31:47;100130.75;;;40.45;18.13
10881;BME280;5493;48.884;8.338;2022-07-19T12:34:14;100130.69;;;40.79;18.44
10881;BME280;5493;48.884;8.338;2022-07-19T12:36:41;100123.03;;;41.03;18.33
10881;BME280;5493;48.884;8.338;2022-07-19T12:39:17;100116.66;;;41.45;16.36
10881;BME280;5493;48.884;8.338;2022-07-19T12:42:02;100121.50;;;41.21;16.50
10881;BME280;5493;48.884;8.338;2022-07-19T12:44:30;100123.72;;;41.77;18.27
10881;BME280;5493;48.884;8.338;2022-07-19T12:46:58;100117.31;;;42.32;16.92
10881;BME280;5493;48.884;8.338;2022-07-19T12:49:25;100115.75;;;41.91;17.82
10881;BME280;5493;48.884;8.338;2022-07-19T12:51:52;100114.53;;;41.92;16.90
10881;BME280;5493;48.884;8.338;2022-07-19T12:54:18;100112.25;;;41.84;17.10
10881;BME280;5493;48.884;8.338;2022-07-19T12:56:45;100108.16;;;41.22;17.43
10881;BME280;5493;48.884;8.338;2022-07-19T12:59:11;100104.06;;;40.50;17.77
10881;BME280;5493;48.884;8.338;2022-07-19T13:01:55;100094.31;;;41.04;17.90
10881;BME280;5493;48.884;8.338;2022-07-19T13:04:23;100094.22;;;40.61;17.79